Nome の空港の天気 - METARとTAF

Nome, Nome Airport ( PAOM / OME ) - アメリカ アラスカ州Nome
飛行場実況気象(Metar)
観測時間12/15 02:53 AKST (12/15 11:53 UTC)
風向・風速静穏 0m/s
視程10km以上
天気現象
全天の8割程度の雲 雲底高度 2290m
気温-23.9℃
湿度86%
気圧1000.6hPa
METARPAOM 151153Z AUTO 00000KT 10SM BKN075 M24/M26 A2955 RMK AO2 SLP006 T12391256 11183 21261 53010 TSNO
過去の天気等 Google飛行場航空写真 Wunderground天気予報

過去48時間のMETAR

飛行場予報(TAF)
発表時間: 12/15 02:28 AKST (12/15 11:28 UTC)
予報対象時間: 15日3時 AKST ~ 16日3時 AKST
風向・風速静穏
視程10km以上
なし
15日5時 AKST から
風向・風速北北西 1m/s
視程10km以上
全天を覆う雲 雲底高度 1520m
PAOM 151128Z 1512/1612 00000KT P6SM SKC
FM151400 34002KT P6SM OVC050